createdAt,value
2023-01-13T00:00:03.468Z,-4.67
2023-01-13T00:02:38.873Z,-4.70
2023-01-13T00:05:06.451Z,-4.62
2023-01-13T00:07:33.483Z,-4.50
2023-01-13T00:10:00.612Z,-4.46
2023-01-13T00:12:27.820Z,-4.49
2023-01-13T00:14:54.822Z,-4.54
2023-01-13T00:17:22.807Z,-4.50
2023-01-13T00:19:50.149Z,-4.47
2023-01-13T00:22:17.210Z,-4.53
2023-01-13T00:24:44.332Z,-4.59
2023-01-13T00:27:11.425Z,-4.61
2023-01-13T00:29:38.540Z,-4.55
2023-01-13T00:32:05.588Z,-4.48
2023-01-13T00:34:32.693Z,-4.48
2023-01-13T00:36:59.685Z,-4.57
2023-01-13T00:39:26.783Z,-4.62
2023-01-13T00:42:12.313Z,-4.57
2023-01-13T00:44:39.402Z,-4.50
2023-01-13T00:47:06.413Z,-4.48
2023-01-13T00:49:33.532Z,-4.48
2023-01-13T00:52:00.622Z,-4.51
2023-01-13T00:54:27.610Z,-4.55
2023-01-13T00:56:54.734Z,-4.52
2023-01-13T00:59:21.837Z,-4.48
2023-01-13T01:01:49.116Z,-4.49
2023-01-13T01:04:16.453Z,-4.56
2023-01-13T01:06:43.609Z,-4.57
2023-01-13T01:09:15.514Z,-4.61
2023-01-13T01:11:42.856Z,-4.55
2023-01-13T01:14:11.462Z,-4.46
2023-01-13T01:16:38.704Z,-4.49
2023-01-13T01:19:06.136Z,-4.53
2023-01-13T01:21:33.453Z,-4.56
2023-01-13T01:24:01.571Z,-4.45
2023-01-13T01:26:29.303Z,-4.36
2023-01-13T01:28:56.385Z,-4.37
2023-01-13T01:31:28.266Z,-4.42
2023-01-13T01:33:55.721Z,-4.45
2023-01-13T01:36:23.592Z,-4.35
2023-01-13T01:38:50.578Z,-4.23
2023-01-13T01:41:20.025Z,-4.24
2023-01-13T01:44:00.292Z,-4.31
2023-01-13T01:46:38.849Z,-4.37
2023-01-13T01:49:05.896Z,-4.40
2023-01-13T01:51:38.407Z,-4.30
2023-01-13T01:54:06.176Z,-4.27
2023-01-13T01:56:33.946Z,-4.31
2023-01-13T01:59:01.105Z,-4.34
2023-01-13T02:01:28.463Z,-4.30
2023-01-13T02:04:02.044Z,-4.22
2023-01-13T02:06:29.348Z,-4.14
2023-01-13T02:08:57.077Z,-4.19
2023-01-13T02:11:52.881Z,-4.27
2023-01-13T02:14:23.959Z,-4.33
2023-01-13T02:17:16.593Z,-4.28
2023-01-13T02:20:11.302Z,-4.17
2023-01-13T02:22:56.575Z,-4.23
2023-01-13T02:25:23.565Z,-4.29
2023-01-13T02:28:18.451Z,-4.33
2023-01-13T02:31:23.960Z,-4.22
2023-01-13T02:34:01.899Z,-4.19
2023-01-13T02:36:56.324Z,-4.22
2023-01-13T02:39:41.939Z,-4.24
2023-01-13T02:42:29.515Z,-4.30
2023-01-13T02:45:21.622Z,-4.20
2023-01-13T02:47:50.264Z,-4.16
2023-01-13T02:50:20.913Z,-4.21
2023-01-13T02:53:01.678Z,-4.23
2023-01-13T02:55:37.654Z,-4.23
2023-01-13T02:58:06.083Z,-4.13
2023-01-13T03:00:33.538Z,-4.12
2023-01-13T03:03:01.611Z,-4.19
2023-01-13T03:05:28.710Z,-4.26
2023-01-13T03:08:15.605Z,-4.33
2023-01-13T03:11:01.543Z,-4.30
2023-01-13T03:13:56.815Z,-4.24
2023-01-13T03:16:47.351Z,-4.27
2023-01-13T03:19:35.288Z,-4.34
2023-01-13T03:22:11.695Z,-4.39
2023-01-13T03:24:56.791Z,-4.31
2023-01-13T03:27:32.401Z,-4.24
2023-01-13T03:30:03.878Z,-4.28
2023-01-13T03:32:35.065Z,-4.34
2023-01-13T03:35:09.970Z,-4.37
2023-01-13T03:37:39.894Z,-4.40
2023-01-13T03:40:10.338Z,-4.28
2023-01-13T03:42:37.748Z,-4.20
2023-01-13T03:45:13.156Z,-4.22
2023-01-13T03:47:45.793Z,-4.26
2023-01-13T03:50:19.638Z,-4.29
2023-01-13T03:52:49.208Z,-4.24
2023-01-13T03:55:21.167Z,-4.16
2023-01-13T03:57:59.678Z,-4.19
2023-01-13T04:00:30.096Z,-4.24
2023-01-13T04:03:00.356Z,-4.28
2023-01-13T04:05:27.237Z,-4.28
2023-01-13T04:08:16.936Z,-4.18
2023-01-13T04:11:22.703Z,-4.18
2023-01-13T04:13:49.857Z,-4.24
2023-01-13T04:16:16.835Z,-4.28
2023-01-13T04:18:43.773Z,-4.21
2023-01-13T04:21:10.783Z,-4.15
2023-01-13T04:23:37.786Z,-4.15
2023-01-13T04:26:04.784Z,-4.20
2023-01-13T04:28:33.460Z,-4.23
2023-01-13T04:31:00.958Z,-4.17
2023-01-13T04:33:28.243Z,-4.12
2023-01-13T04:35:55.322Z,-4.13
2023-01-13T04:38:22.632Z,-4.17
2023-01-13T04:40:49.707Z,-4.17
2023-01-13T04:43:16.840Z,-4.14
2023-01-13T04:45:43.907Z,-4.10
2023-01-13T04:48:11.100Z,-4.13
2023-01-13T04:50:38.147Z,-4.16
2023-01-13T04:53:05.784Z,-4.08
2023-01-13T04:55:32.794Z,-3.98
2023-01-13T04:58:06.751Z,-3.98
2023-01-13T05:00:34.767Z,-4.04
2023-01-13T05:03:01.846Z,-4.07
2023-01-13T05:05:29.247Z,-4.09
2023-01-13T05:07:56.139Z,-4.00
2023-01-13T05:10:24.087Z,-3.91
2023-01-13T05:13:09.605Z,-3.92
2023-01-13T05:15:55.215Z,-3.94
2023-01-13T05:18:22.269Z,-3.97
2023-01-13T05:20:49.917Z,-4.01
2023-01-13T05:23:35.468Z,-3.96
2023-01-13T05:26:02.424Z,-3.87
2023-01-13T05:28:33.361Z,-3.89
2023-01-13T05:31:01.174Z,-3.96
2023-01-13T05:33:28.273Z,-4.01
2023-01-13T05:35:55.303Z,-4.03
2023-01-13T05:38:22.271Z,-3.97
2023-01-13T05:41:07.708Z,-3.92
2023-01-13T05:43:34.948Z,-3.95
2023-01-13T05:46:07.969Z,-4.00
2023-01-13T05:48:40.126Z,-4.03
2023-01-13T05:51:11.479Z,-4.02
2023-01-13T05:53:40.679Z,-3.98
2023-01-13T05:56:08.308Z,-3.96
2023-01-13T05:58:35.444Z,-4.01
2023-01-13T06:01:03.998Z,-4.06
2023-01-13T06:03:31.006Z,-4.03
2023-01-13T06:06:02.138Z,-3.99
2023-01-13T06:08:29.519Z,-3.99
2023-01-13T06:10:56.531Z,-4.02
2023-01-13T06:13:25.305Z,-4.05
2023-01-13T06:15:55.722Z,-4.01
2023-01-13T06:18:24.076Z,-3.94
2023-01-13T06:20:51.037Z,-3.91
2023-01-13T06:23:19.105Z,-3.95
2023-01-13T06:25:55.246Z,-4.00
2023-01-13T06:28:22.185Z,-4.02
2023-01-13T06:30:49.970Z,-3.98
2023-01-13T06:33:19.766Z,-3.92
2023-01-13T06:35:50.548Z,-3.87
2023-01-13T06:38:17.576Z,-3.87
2023-01-13T06:40:44.649Z,-3.93
2023-01-13T06:43:17.699Z,-3.96
2023-01-13T06:45:47.416Z,-3.93
2023-01-13T06:48:14.785Z,-3.89
2023-01-13T06:50:42.333Z,-3.88
2023-01-13T06:53:10.074Z,-3.91
2023-01-13T06:55:37.265Z,-3.96
2023-01-13T06:58:04.193Z,-3.93
2023-01-13T07:00:32.634Z,-3.89
2023-01-13T07:03:13.807Z,-3.85
2023-01-13T07:05:43.129Z,-3.84
2023-01-13T07:08:10.310Z,-3.86
2023-01-13T07:10:37.531Z,-3.85
2023-01-13T07:13:23.541Z,-3.79
2023-01-13T07:15:57.524Z,-3.71
2023-01-13T07:18:24.641Z,-3.64
2023-01-13T07:20:53.467Z,-3.64
2023-01-13T07:23:20.538Z,-3.65
2023-01-13T07:25:47.501Z,-3.67
2023-01-13T07:28:14.512Z,-3.61
2023-01-13T07:30:41.453Z,-3.54
2023-01-13T07:33:08.384Z,-3.46
2023-01-13T07:35:35.583Z,-3.46
2023-01-13T07:38:02.580Z,-3.50
2023-01-13T07:40:29.563Z,-3.51
2023-01-13T07:43:15.078Z,-3.45
2023-01-13T07:45:42.098Z,-3.35
2023-01-13T07:48:09.085Z,-3.29
2023-01-13T07:50:36.040Z,-3.29
2023-01-13T07:53:03.040Z,-3.34
2023-01-13T07:55:30.001Z,-3.40
2023-01-13T07:57:56.923Z,-3.37
2023-01-13T08:00:23.983Z,-3.30
2023-01-13T08:02:51.100Z,-3.28
2023-01-13T08:05:18.256Z,-3.33
2023-01-13T08:07:45.423Z,-3.37
2023-01-13T08:10:12.441Z,-3.37
2023-01-13T08:12:57.946Z,-3.34
2023-01-13T08:15:25.091Z,-3.31
2023-01-13T08:17:51.978Z,-3.33
2023-01-13T08:20:19.339Z,-3.35
2023-01-13T08:22:46.467Z,-3.33
2023-01-13T08:25:13.492Z,-3.26
2023-01-13T08:27:40.632Z,-3.19
2023-01-13T08:30:08.598Z,-3.20
2023-01-13T08:32:35.839Z,-3.22
2023-01-13T08:35:02.764Z,-3.21
2023-01-13T12:35:05.276Z,-3.30
2023-01-13T12:37:42.894Z,-3.08
2023-01-13T12:40:42.479Z,-2.88
2023-01-13T12:43:37.761Z,-2.69
2023-01-13T12:46:21.550Z,-2.57
2023-01-13T12:48:54.849Z,-2.51
2023-01-13T12:51:45.584Z,-2.45
2023-01-13T12:54:31.117Z,-2.30
2023-01-13T12:56:58.916Z,-2.22
2023-01-13T12:59:25.939Z,-2.23
2023-01-13T13:02:11.594Z,-2.22
2023-01-13T13:04:51.971Z,-2.15
2023-01-13T13:07:20.416Z,-2.08
2023-01-13T13:09:53.403Z,-2.08
2023-01-13T13:13:02.372Z,-2.12
2023-01-13T13:15:30.061Z,-2.13
2023-01-13T13:18:00.298Z,-2.05
2023-01-13T13:21:04.521Z,-1.97
2023-01-13T13:24:04.176Z,-1.99
2023-01-13T13:26:36.550Z,-2.06
2023-01-13T13:29:37.795Z,-2.08
2023-01-13T13:32:23.071Z,-2.00
2023-01-13T13:34:53.090Z,-1.96
2023-01-13T13:37:55.349Z,-2.00
2023-01-13T13:40:42.717Z,-2.07
2023-01-13T13:43:31.165Z,-2.13
2023-01-13T13:46:16.864Z,-2.09
2023-01-13T13:48:54.416Z,-2.10
2023-01-13T13:51:27.393Z,-2.15
2023-01-13T13:53:55.993Z,-2.18
2023-01-13T13:56:24.437Z,-2.16
2023-01-13T13:58:52.330Z,-2.14
2023-01-13T14:01:27.969Z,-2.19
2023-01-13T14:04:18.567Z,-2.25
2023-01-13T14:07:16.314Z,-2.30
2023-01-13T14:09:45.430Z,-2.23
2023-01-13T14:12:18.818Z,-2.19
2023-01-13T14:14:46.545Z,-2.22
2023-01-13T14:17:26.512Z,-2.26
2023-01-13T14:20:09.642Z,-2.25
2023-01-13T14:22:36.703Z,-2.21
2023-01-13T14:25:21.015Z,-2.17
2023-01-13T14:27:48.027Z,-2.16
2023-01-13T14:30:15.923Z,-2.20
2023-01-13T14:32:42.842Z,-2.15
2023-01-13T14:35:10.728Z,-2.07
2023-01-13T14:37:39.564Z,-2.08
2023-01-13T14:40:06.899Z,-2.11
2023-01-13T14:42:35.658Z,-2.13
2023-01-13T14:45:03.349Z,-2.04
2023-01-13T14:47:33.725Z,-1.96
2023-01-13T14:50:22.047Z,-1.98
2023-01-13T14:52:50.701Z,-2.05
2023-01-13T14:55:34.559Z,-2.07
2023-01-13T14:58:20.511Z,-2.03
2023-01-13T15:00:48.203Z,-1.98
2023-01-13T15:03:16.305Z,-2.02
2023-01-13T15:05:48.382Z,-2.07
2023-01-13T15:08:17.094Z,-2.10
2023-01-13T15:10:54.580Z,-2.06
2023-01-13T15:13:43.347Z,-1.98
2023-01-13T15:16:21.451Z,-1.99
2023-01-13T15:18:48.554Z,-2.04
2023-01-13T15:21:18.239Z,-2.06
2023-01-13T15:23:47.321Z,-1.99
2023-01-13T15:26:24.856Z,-1.93
2023-01-13T15:28:52.269Z,-1.94
2023-01-13T15:31:19.366Z,-1.95
2023-01-13T15:33:46.388Z,-1.95
2023-01-13T15:36:23.731Z,-1.88
2023-01-13T15:38:50.776Z,-1.79
2023-01-13T15:41:17.798Z,-1.79
2023-01-13T15:44:03.415Z,-1.80
2023-01-13T15:46:39.535Z,-1.79
2023-01-13T15:49:37.222Z,-1.69
2023-01-13T15:52:05.485Z,-1.69
2023-01-13T15:54:32.500Z,-1.76
2023-01-13T15:56:59.561Z,-1.79
2023-01-13T15:59:27.263Z,-1.74
2023-01-13T21:16:58.890Z,-3.63
2023-01-13T21:19:26.145Z,-3.49
2023-01-13T21:21:53.097Z,-3.32
2023-01-13T21:24:20.102Z,-3.18
2023-01-13T21:26:49.769Z,-3.06
2023-01-13T21:29:16.711Z,-2.96
2023-01-13T21:31:43.896Z,-2.91
2023-01-13T21:34:11.694Z,-2.87
2023-01-13T21:36:38.738Z,-2.78
2023-01-13T21:39:05.844Z,-2.68
2023-01-13T21:41:51.787Z,-2.59
2023-01-13T21:44:38.919Z,-2.60
2023-01-13T21:47:35.168Z,-2.62
2023-01-13T21:50:02.615Z,-2.61
2023-01-13T21:52:29.734Z,-2.56
2023-01-13T21:55:15.462Z,-2.52
2023-01-13T21:57:53.236Z,-2.54
2023-01-13T22:00:21.332Z,-2.58
2023-01-13T22:02:48.537Z,-2.56
2023-01-13T22:05:17.143Z,-2.52
2023-01-13T22:07:44.226Z,-2.53
2023-01-13T22:10:15.567Z,-2.55
2023-01-13T22:12:43.594Z,-2.58
2023-01-13T22:15:11.906Z,-2.56
2023-01-13T22:17:40.049Z,-2.53
2023-01-13T22:20:08.002Z,-2.55
2023-01-13T22:22:37.081Z,-2.58
2023-01-13T22:25:06.956Z,-2.53
2023-01-13T22:27:39.391Z,-2.46
2023-01-13T22:30:18.179Z,-2.42
2023-01-13T22:32:45.959Z,-2.46
2023-01-13T22:35:13.815Z,-2.52
2023-01-13T22:37:41.150Z,-2.49
2023-01-13T22:40:09.669Z,-2.45
2023-01-13T22:42:40.573Z,-2.46
2023-01-13T22:45:09.907Z,-2.48
2023-01-13T22:47:37.074Z,-2.45
2023-01-13T22:50:04.583Z,-2.40
2023-01-13T22:52:32.794Z,-2.38
2023-01-13T22:55:00.975Z,-2.41
2023-01-13T22:57:36.026Z,-2.46
2023-01-13T23:00:10.470Z,-2.41
2023-01-13T23:02:40.307Z,-2.37
2023-01-13T23:05:07.521Z,-2.35
2023-01-13T23:07:35.581Z,-2.39
2023-01-13T23:10:03.206Z,-2.42
2023-01-13T23:12:30.069Z,-2.38
2023-01-13T23:14:57.221Z,-2.35
2023-01-13T23:17:24.236Z,-2.36
2023-01-13T23:19:51.142Z,-2.41
2023-01-13T23:22:18.354Z,-2.46
2023-01-13T23:24:45.776Z,-2.44
2023-01-13T23:27:12.664Z,-2.39
2023-01-13T23:29:39.908Z,-2.41
2023-01-13T23:32:06.934Z,-2.46
2023-01-13T23:34:33.845Z,-2.49
2023-01-13T23:37:00.957Z,-2.45
2023-01-13T23:39:27.968Z,-2.42
2023-01-13T23:41:55.003Z,-2.38
2023-01-13T23:44:22.215Z,-2.40
2023-01-13T23:46:49.158Z,-2.44
2023-01-13T23:49:16.063Z,-2.44
2023-01-13T23:51:43.254Z,-2.40
2023-01-13T23:54:10.143Z,-2.35
2023-01-13T23:56:39.579Z,-2.37
2023-01-13T23:59:06.974Z,-2.42
